Time;durP1;ratioP1;P1;durP2;ratioP2;P2;SDS_P1;SDS_P2;PMS_P1;PMS_P2;Temp;Humidity;BMP_temperature;BMP_pressure;BME280_temperature;BME280_humidity;BME280_pressure;Samples;Min_cycle;Max_cycle;Signal;HPM_P1;HPM_P2
2021/09/22 00:03:40;;;;;;;22.05;8.70;;;;;;;;;;10558162;28;20480;-70
2021/09/22 00:08:43;;;;;;;21.00;8.65;;;;;;;;;;10559082;28;20039;-71
2021/09/22 00:13:46;;;;;;;19.38;8.10;;;;;;;;;;10569581;28;20039;-70
2021/09/22 00:18:50;;;;;;;21.42;7.78;;;;;;;;;;10568766;28;20414;-72
2021/09/22 00:23:53;;;;;;;19.48;7.88;;;;;;;;;;10566980;28;20039;-71
2021/09/22 00:28:56;;;;;;;21.55;8.95;;;;;;;;;;10566716;28;20047;-70
2021/09/22 00:34:00;;;;;;;17.58;7.30;;;;;;;;;;10566459;28;20099;-72
2021/09/22 00:39:04;;;;;;;24.38;8.20;;;;;;;;;;10567221;28;20044;-71
2021/09/22 00:44:06;;;;;;;22.52;8.40;;;;;;;;;;10563433;28;20122;-71
2021/09/22 00:49:11;;;;;;;24.45;9.20;;;;;;;;;;10567896;28;20071;-71
2021/09/22 00:54:14;;;;;;;19.42;8.75;;;;;;;;;;10568397;28;20043;-71
2021/09/22 00:59:17;;;;;;;20.83;9.13;;;;;;;;;;10564139;27;20059;-70
2021/09/22 01:04:21;;;;;;;21.65;7.80;;;;;;;;;;10565259;28;20104;-70
2021/09/22 01:09:24;;;;;;;18.58;7.80;;;;;;;;;;10564941;28;20043;-71
2021/09/22 01:14:28;;;;;;;18.52;7.65;;;;;;;;;;10562943;28;20028;-72
2021/09/22 01:19:38;;;;;;;21.92;9.15;;;;;;;;;;10562199;28;20040;-72
2021/09/22 01:25:00;;;;;;;21.65;8.57;;;;;;;;;;10558712;28;20130;-72
2021/09/22 01:30:23;;;;;;;22.92;9.15;;;;;;;;;;10564075;28;20039;-71
2021/09/22 01:35:26;;;;;;;20.97;9.20;;;;;;;;;;10563932;28;20114;-72
2021/09/22 01:40:31;;;;;;;24.55;9.35;;;;;;;;;;10563935;28;20124;-71
2021/09/22 01:45:34;;;;;;;21.65;8.02;;;;;;;;;;10564447;28;20556;-71
2021/09/22 01:50:37;;;;;;;23.40;9.07;;;;;;;;;;10563203;28;20063;-71
2021/09/22 01:55:41;;;;;;;20.67;8.10;;;;;;;;;;10565475;28;20510;-71
2021/09/22 02:00:44;;;;;;;22.85;9.27;;;;;;;;;;10566022;28;20048;-71
2021/09/22 02:05:46;;;;;;;20.95;8.80;;;;;;;;;;10558448;28;20040;-69
2021/09/22 02:10:51;;;;;;;22.27;8.80;;;;;;;;;;10562385;28;20116;-70
2021/09/22 02:15:53;;;;;;;20.08;8.23;;;;;;;;;;10564442;28;20042;-68
2021/09/22 02:20:56;;;;;;;22.45;8.35;;;;;;;;;;10565097;28;20427;-69
2021/09/22 02:26:00;;;;;;;21.38;8.40;;;;;;;;;;10565478;28;20035;-71
2021/09/22 02:31:03;;;;;;;21.15;8.80;;;;;;;;;;10555147;28;20047;-70
2021/09/22 02:36:06;;;;;;;21.15;9.07;;;;;;;;;;10566880;28;20036;-69
2021/09/22 02:41:10;;;;;;;20.17;8.57;;;;;;;;;;10568832;28;20071;-70
2021/09/22 02:46:13;;;;;;;21.80;8.90;;;;;;;;;;10563666;28;20356;-69
2021/09/22 02:51:16;;;;;;;23.60;9.20;;;;;;;;;;10572397;28;20122;-72
2021/09/22 02:56:20;;;;;;;20.92;8.23;;;;;;;;;;10572073;28;20061;-71
2021/09/22 03:01:23;;;;;;;21.27;8.68;;;;;;;;;;10563359;28;20043;-68
2021/09/22 03:06:26;;;;;;;24.10;9.17;;;;;;;;;;10567352;28;20071;-70
2021/09/22 03:11:31;;;;;;;24.27;8.70;;;;;;;;;;10567300;28;20032;-71
2021/09/22 03:16:33;;;;;;;21.85;8.98;;;;;;;;;;10570434;28;20100;-72
2021/09/22 03:21:36;;;;;;;27.45;10.02;;;;;;;;;;10567738;28;20035;-70
2021/09/22 03:26:41;;;;;;;23.08;8.68;;;;;;;;;;10568873;28;20067;-68
2021/09/22 03:31:44;;;;;;;23.23;8.25;;;;;;;;;;10565307;28;20044;-69
2021/09/22 03:36:47;;;;;;;22.98;9.18;;;;;;;;;;10569248;28;20127;-69
2021/09/22 03:41:51;;;;;;;22.80;9.43;;;;;;;;;;10566669;28;20050;-70
2021/09/22 03:46:54;;;;;;;22.42;9.25;;;;;;;;;;10569443;28;20043;-70
2021/09/22 03:51:57;;;;;;;24.83;9.80;;;;;;;;;;10567932;28;20590;-70
2021/09/22 03:57:01;;;;;;;22.38;9.05;;;;;;;;;;10558846;28;20047;-70
2021/09/22 04:02:04;;;;;;;22.20;9.23;;;;;;;;;;10568410;28;20515;-69
2021/09/22 04:07:08;;;;;;;19.92;8.13;;;;;;;;;;10566898;28;20465;-70
2021/09/22 04:12:12;;;;;;;26.77;9.70;;;;;;;;;;10568823;28;20070;-71
2021/09/22 04:17:15;;;;;;;19.15;8.50;;;;;;;;;;10563805;28;20044;-70
2021/09/22 04:22:18;;;;;;;24.25;9.43;;;;;;;;;;10568896;28;20429;-70
2021/09/22 04:27:22;;;;;;;25.77;9.68;;;;;;;;;;10567637;28;20424;-70
2021/09/22 04:32:26;;;;;;;32.03;9.73;;;;;;;;;;10565394;28;20403;-70
2021/09/22 04:37:35;;;;;;;26.67;8.90;;;;;;;;;;10565792;28;20111;-71
2021/09/22 04:42:39;;;;;;;21.95;8.70;;;;;;;;;;10566278;28;20100;-71
2021/09/22 04:47:42;;;;;;;21.85;7.88;;;;;;;;;;10564287;28;20077;-70
2021/09/22 04:52:45;;;;;;;24.83;9.13;;;;;;;;;;10566581;28;20039;-70
2021/09/22 04:57:49;;;;;;;25.33;9.13;;;;;;;;;;10564797;28;20043;-70
2021/09/22 05:02:51;;;;;;;29.02;9.40;;;;;;;;;;10564837;28;21639;-71
2021/09/22 05:07:55;;;;;;;24.37;10.10;;;;;;;;;;10560578;28;20075;-70
2021/09/22 05:12:59;;;;;;;26.05;9.73;;;;;;;;;;10558587;28;20089;-70
2021/09/22 05:18:02;;;;;;;24.55;9.13;;;;;;;;;;10563855;28;20056;-68
2021/09/22 05:23:05;;;;;;;24.48;8.40;;;;;;;;;;10562015;28;20047;-70
2021/09/22 05:28:09;;;;;;;26.33;8.57;;;;;;;;;;10562275;28;20048;-70
2021/09/22 05:33:12;;;;;;;23.88;9.02;;;;;;;;;;10556024;28;20055;-70
2021/09/22 05:38:21;;;;;;;20.23;8.23;;;;;;;;;;10562390;28;20069;-71
2021/09/22 05:43:25;;;;;;;18.95;7.85;;;;;;;;;;10566253;28;20115;-73
2021/09/22 05:48:28;;;;;;;21.88;8.95;;;;;;;;;;10565663;28;20128;-73
2021/09/22 05:53:31;;;;;;;18.67;7.10;;;;;;;;;;10561495;28;20081;-72
2021/09/22 05:58:36;;;;;;;21.83;8.77;;;;;;;;;;10565293;28;20062;-73
2021/09/22 06:03:38;;;;;;;20.65;8.32;;;;;;;;;;10558303;28;20036;-72
2021/09/22 06:08:42;;;;;;;16.60;7.40;;;;;;;;;;10546175;28;20131;-69
2021/09/22 06:13:49;;;;;;;21.98;8.52;;;;;;;;;;10566956;28;20047;-70
2021/09/22 06:18:52;;;;;;;23.88;8.95;;;;;;;;;;10573592;28;20048;-70
2021/09/22 06:23:54;;;;;;;20.33;8.77;;;;;;;;;;10562818;28;20044;-69
2021/09/22 06:28:59;;;;;;;17.95;8.13;;;;;;;;;;10568212;28;20601;-71
2021/09/22 06:34:01;;;;;;;18.60;8.05;;;;;;;;;;10563958;28;20080;-70
2021/09/22 06:39:06;;;;;;;19.55;8.02;;;;;;;;;;10567142;28;20052;-70
2021/09/22 06:44:10;;;;;;;18.50;8.13;;;;;;;;;;10567446;28;20050;-70
2021/09/22 06:49:13;;;;;;;18.88;9.15;;;;;;;;;;10571609;28;20070;-71
2021/09/22 06:54:16;;;;;;;21.47;9.00;;;;;;;;;;10571349;28;20101;-68
2021/09/22 06:59:20;;;;;;;20.33;9.10;;;;;;;;;;10568257;28;20104;-70
2021/09/22 07:04:23;;;;;;;17.15;8.10;;;;;;;;;;10565672;28;20027;-71
2021/09/22 07:09:26;;;;;;;14.93;8.60;;;;;;;;;;10565538;28;20066;-70
2021/09/22 07:14:32;;;;;;;15.43;8.63;;;;;;;;;;10564571;28;20130;-71
2021/09/22 07:19:35;;;;;;;16.00;7.80;;;;;;;;;;10566916;28;20067;-71
2021/09/22 07:24:38;;;;;;;16.27;8.17;;;;;;;;;;10565538;28;20067;-68
2021/09/22 07:29:42;;;;;;;17.05;9.40;;;;;;;;;;10568006;28;20332;-71
2021/09/22 07:34:45;;;;;;;13.73;7.78;;;;;;;;;;10567753;28;20040;-70
2021/09/22 07:39:48;;;;;;;16.88;8.50;;;;;;;;;;10568091;28;20036;-70
2021/09/22 07:44:54;;;;;;;17.00;7.43;;;;;;;;;;10565240;28;20140;-68
2021/09/22 07:49:56;;;;;;;16.15;6.75;;;;;;;;;;10566522;28;20039;-69
2021/09/22 07:55:00;;;;;;;12.98;7.55;;;;;;;;;;10561280;28;20079;-69
2021/09/22 08:00:05;;;;;;;12.85;7.07;;;;;;;;;;10562466;28;20062;-71
2021/09/22 08:05:08;;;;;;;13.85;7.72;;;;;;;;;;10566103;28;20361;-70
2021/09/22 08:10:18;;;;;;;13.43;7.90;;;;;;;;;;10567350;28;20123;-71
2021/09/22 08:15:20;;;;;;;;;;;;;;;;;;10563242;28;20047;-71
2021/09/22 08:20:25;;;;;;;10.65;6.97;;;;;;;;;;10564842;28;19988;-71
2021/09/22 08:25:27;;;;;;;12.43;6.68;;;;;;;;;;10559040;28;20570;-71
2021/09/22 08:30:30;;;;;;;13.45;8.07;;;;;;;;;;10568122;28;20127;-71
2021/09/22 08:35:34;;;;;;;9.82;7.03;;;;;;;;;;10560841;28;20419;-72
2021/09/22 08:40:37;;;;;;;14.13;7.55;;;;;;;;;;10566770;28;20603;-71
2021/09/22 08:45:40;;;;;;;10.88;6.97;;;;;;;;;;10563987;28;20471;-72
2021/09/22 08:50:45;;;;;;;11.52;7.60;;;;;;;;;;10562978;28;20100;-68
2021/09/22 08:55:47;;;;;;;13.18;7.35;;;;;;;;;;10564316;28;20434;-70
2021/09/22 09:00:50;;;;;;;13.80;8.30;;;;;;;;;;10563421;28;20119;-71
2021/09/22 09:06:14;;;;;;;10.95;6.78;;;;;;;;;;10564006;28;20116;-70
2021/09/22 09:11:23;;;;;;;10.20;6.20;;;;;;;;;;10558350;28;20147;-70
2021/09/22 09:16:31;;;;;;;11.57;6.97;;;;;;;;;;10560498;28;20126;-69
2021/09/22 09:21:52;;;;;;;10.90;6.63;;;;;;;;;;10561188;28;20035;-70
2021/09/22 09:26:56;;;;;;;9.63;6.43;;;;;;;;;;10562676;28;20096;-71
2021/09/22 09:32:17;;;;;;;11.27;5.97;;;;;;;;;;10560246;28;20089;-71
2021/09/22 09:37:29;;;;;;;8.57;5.47;;;;;;;;;;10561167;28;20168;-70
2021/09/22 09:42:32;;;;;;;7.35;5.95;;;;;;;;;;10559812;28;20051;-71
2021/09/22 09:47:36;;;;;;;5.78;4.13;;;;;;;;;;10573980;28;20035;-72
2021/09/22 09:52:50;;;;;;;5.40;3.70;;;;;;;;;;10573515;28;20075;-71
2021/09/22 09:57:54;;;;;;;6.63;4.82;;;;;;;;;;10570161;28;20101;-71
2021/09/22 10:03:08;;;;;;;6.03;4.82;;;;;;;;;;10567068;28;20107;-71
2021/09/22 10:08:13;;;;;;;6.00;4.07;;;;;;;;;;10570714;28;20191;-69
2021/09/22 10:13:16;;;;;;;5.70;4.05;;;;;;;;;;10568985;28;20058;-70
2021/09/22 10:18:22;;;;;;;7.28;4.07;;;;;;;;;;10574183;28;20089;-70
2021/09/22 10:23:27;;;;;;;8.15;4.20;;;;;;;;;;10563798;28;20040;-70
2021/09/22 10:28:33;;;;;;;6.85;4.22;;;;;;;;;;10572307;28;20036;-70
2021/09/22 10:33:37;;;;;;;8.07;4.95;;;;;;;;;;10568162;28;20071;-69
2021/09/22 10:38:48;;;;;;;6.70;4.40;;;;;;;;;;10570171;28;20052;-71
2021/09/22 10:43:51;;;;;;;7.40;4.32;;;;;;;;;;10566565;28;20097;-70
2021/09/22 10:49:02;;;;;;;6.45;4.20;;;;;;;;;;10571441;28;20040;-70
2021/09/22 10:54:07;;;;;;;7.03;4.30;;;;;;;;;;10565200;28;20439;-71
2021/09/22 10:59:24;;;;;;;7.97;4.30;;;;;;;;;;10571676;28;20043;-71
2021/09/22 11:04:27;;;;;;;5.88;4.22;;;;;;;;;;10563145;28;20067;-71
2021/09/22 11:09:33;;;;;;;7.88;4.82;;;;;;;;;;10558350;28;20066;-71
2021/09/22 11:14:37;;;;;;;6.13;4.10;;;;;;;;;;10560758;28;20109;-72
2021/09/22 11:19:40;;;;;;;6.60;3.90;;;;;;;;;;10569638;28;20051;-71
2021/09/22 11:24:44;;;;;;;6.78;4.50;;;;;;;;;;10566965;28;20082;-70
2021/09/22 11:29:49;;;;;;;8.02;4.60;;;;;;;;;;10558304;28;20078;-70
2021/09/22 11:34:52;;;;;;;7.68;5.20;;;;;;;;;;10549581;28;20040;-70
2021/09/22 11:39:56;;;;;;;9.35;5.25;;;;;;;;;;10564615;28;20039;-69
2021/09/22 11:44:59;;;;;;;9.35;4.47;;;;;;;;;;10570483;28;20488;-70
2021/09/22 11:50:02;;;;;;;7.10;4.75;;;;;;;;;;10561873;28;20043;-67
2021/09/22 11:55:07;;;;;;;7.40;4.60;;;;;;;;;;10563110;28;20048;-70
2021/09/22 12:00:14;;;;;;;7.75;3.95;;;;;;;;;;10562968;28;20044;-71
2021/09/22 12:05:18;;;;;;;6.18;3.65;;;;;;;;;;10565855;28;20042;-70
2021/09/22 12:10:22;;;;;;;6.18;3.78;;;;;;;;;;10565569;28;20044;-69
2021/09/22 12:15:25;;;;;;;6.20;3.33;;;;;;;;;;10539042;28;20143;-70
2021/09/22 12:20:28;;;;;;;6.00;2.85;;;;;;;;;;10533950;28;20108;-68
2021/09/22 12:25:34;;;;;;;8.90;5.25;;;;;;;;;;10535669;28;20048;-71
2021/09/22 12:30:38;;;;;;;4.70;2.67;;;;;;;;;;10540520;28;20078;-70
2021/09/22 12:35:42;;;;;;;5.65;2.58;;;;;;;;;;10555453;28;20060;-68
2021/09/22 12:40:48;;;;;;;6.00;2.80;;;;;;;;;;10578565;27;20422;-69
2021/09/22 12:45:52;;;;;;;6.22;2.90;;;;;;;;;;10561288;27;20047;-69
2021/09/22 12:50:55;;;;;;;5.13;2.40;;;;;;;;;;10551504;28;20043;-69
2021/09/22 12:55:59;;;;;;;6.10;2.40;;;;;;;;;;10555438;28;20070;-71
2021/09/22 13:01:03;;;;;;;5.65;2.40;;;;;;;;;;10562391;28;20054;-70
2021/09/22 13:06:11;;;;;;;3.72;2.53;;;;;;;;;;10560343;28;20048;-68
2021/09/22 13:11:17;;;;;;;5.57;3.35;;;;;;;;;;10558031;28;20066;-71
2021/09/22 13:16:24;;;;;;;6.18;2.90;;;;;;;;;;10557595;28;20048;-71
2021/09/22 13:21:27;;;;;;;4.38;2.38;;;;;;;;;;10573482;27;20055;-72
2021/09/22 13:26:32;;;;;;;5.95;2.95;;;;;;;;;;10560105;28;20045;-71
2021/09/22 13:31:36;;;;;;;7.82;2.92;;;;;;;;;;10559296;28;20039;-68
2021/09/22 13:36:39;;;;;;;5.43;2.88;;;;;;;;;;10562951;28;20062;-69
2021/09/22 13:41:44;;;;;;;4.97;2.88;;;;;;;;;;10557031;28;20560;-71
2021/09/22 13:46:48;;;;;;;5.55;2.83;;;;;;;;;;10563351;28;20035;-69
2021/09/22 13:51:52;;;;;;;6.63;2.70;;;;;;;;;;10550577;28;20036;-70
2021/09/22 13:56:54;;;;;;;;;;;;;;;;;;10564248;28;20044;-69
2021/09/22 14:01:59;;;;;;;3.93;2.20;;;;;;;;;;10553478;28;19927;-69
2021/09/22 14:07:03;;;;;;;7.97;2.88;;;;;;;;;;10526114;28;20130;-68
2021/09/22 14:12:06;;;;;;;5.93;3.10;;;;;;;;;;10557122;28;20040;-70
2021/09/22 14:17:09;;;;;;;;;;;;;;;;;;10560754;28;20146;-71
2021/09/22 14:22:13;;;;;;;8.73;3.13;;;;;;;;;;10561339;28;20023;-70
2021/09/22 14:27:16;;;;;;;6.05;3.03;;;;;;;;;;10569345;28;20035;-69
2021/09/22 14:32:19;;;;;;;4.18;2.33;;;;;;;;;;10566725;28;20044;-70
2021/09/22 14:37:24;;;;;;;7.60;2.45;;;;;;;;;;10564535;28;20516;-69
2021/09/22 14:42:27;;;;;;;4.30;2.30;;;;;;;;;;10558034;28;20417;-70
2021/09/22 14:47:30;;;;;;;5.95;2.33;;;;;;;;;;10573918;28;20036;-72
2021/09/22 14:52:34;;;;;;;7.40;3.65;;;;;;;;;;10572374;28;20058;-71
2021/09/22 14:57:42;;;;;;;5.55;2.45;;;;;;;;;;10571149;28;20048;-71
2021/09/22 15:02:48;;;;;;;4.43;2.55;;;;;;;;;;10562991;28;20036;-68
2021/09/22 15:07:55;;;;;;;5.60;2.67;;;;;;;;;;10563210;28;20131;-70
2021/09/22 15:12:57;;;;;;;9.13;3.05;;;;;;;;;;10565827;28;20066;-69
2021/09/22 15:18:00;;;;;;;4.45;2.63;;;;;;;;;;10563700;28;20047;-68
2021/09/22 15:23:05;;;;;;;5.28;2.60;;;;;;;;;;10559678;28;20058;-70
2021/09/22 15:28:09;;;;;;;5.13;2.67;;;;;;;;;;10535875;28;20097;-71
2021/09/22 15:33:12;;;;;;;5.13;2.70;;;;;;;;;;10537371;28;20526;-69
2021/09/22 15:38:17;;;;;;;10.23;3.50;;;;;;;;;;10550260;27;20127;-71
2021/09/22 15:43:20;;;;;;;10.93;4.07;;;;;;;;;;10563992;28;20139;-72
2021/09/22 15:48:22;;;;;;;5.88;2.53;;;;;;;;;;10565555;28;20035;-71
2021/09/22 15:53:27;;;;;;;6.20;2.97;;;;;;;;;;10553340;28;20759;-70
2021/09/22 15:58:29;;;;;;;7.93;3.17;;;;;;;;;;10559915;28;20783;-71
2021/09/22 16:03:32;;;;;;;7.47;3.30;;;;;;;;;;10561866;28;20119;-71
2021/09/22 16:08:35;;;;;;;;;;;;;;;;;;10564064;28;20046;-69
2021/09/22 16:13:40;;;;;;;9.20;3.20;;;;;;;;;;10566229;28;20000;-70
2021/09/22 16:18:42;;;;;;;7.40;3.15;;;;;;;;;;10567298;28;20052;-70
2021/09/22 16:23:46;;;;;;;9.60;3.20;;;;;;;;;;10563631;28;20042;-69
2021/09/22 16:28:51;;;;;;;8.23;3.80;;;;;;;;;;10568127;28;20637;-70
2021/09/22 16:33:54;;;;;;;6.63;3.67;;;;;;;;;;10535374;28;20040;-68
2021/09/22 16:38:57;;;;;;;6.60;2.83;;;;;;;;;;10534688;28;20043;-69
2021/09/22 16:44:01;;;;;;;7.43;3.22;;;;;;;;;;10525572;28;20325;-71
2021/09/22 16:49:09;;;;;;;7.60;3.35;;;;;;;;;;10528588;28;20058;-70
2021/09/22 16:54:16;;;;;;;12.43;3.83;;;;;;;;;;10527962;28;20091;-70
2021/09/22 16:59:20;;;;;;;10.40;3.70;;;;;;;;;;10528487;28;20099;-70
2021/09/22 17:04:23;;;;;;;12.63;4.93;;;;;;;;;;10541815;28;20032;-69
2021/09/22 17:09:45;;;;;;;7.57;3.33;;;;;;;;;;10562143;28;20036;-70
2021/09/22 17:14:50;;;;;;;11.20;4.53;;;;;;;;;;10559214;28;20048;-72
2021/09/22 17:19:53;;;;;;;11.23;4.13;;;;;;;;;;10556554;28;20536;-70
2021/09/22 17:24:56;;;;;;;11.05;5.05;;;;;;;;;;10554750;28;20051;-68
2021/09/22 17:30:00;;;;;;;11.07;5.22;;;;;;;;;;10554217;28;20039;-72
2021/09/22 17:35:04;;;;;;;9.20;4.15;;;;;;;;;;10547742;28;20051;-71
2021/09/22 17:40:08;;;;;;;19.92;8.57;;;;;;;;;;10564353;28;20055;-70
2021/09/22 17:45:13;;;;;;;10.60;4.15;;;;;;;;;;10563321;28;20047;-71
2021/09/22 17:50:15;;;;;;;9.65;4.03;;;;;;;;;;10563950;28;20043;-71
2021/09/22 17:55:18;;;;;;;11.73;5.10;;;;;;;;;;10562869;28;20130;-69
2021/09/22 18:00:23;;;;;;;11.47;5.47;;;;;;;;;;10559479;28;20036;-71
2021/09/22 18:05:26;;;;;;;10.00;4.43;;;;;;;;;;10567042;28;20051;-71
2021/09/22 18:10:29;;;;;;;9.00;4.53;;;;;;;;;;10565374;28;20042;-73
2021/09/22 18:15:33;;;;;;;15.00;5.63;;;;;;;;;;10568006;28;20050;-70
2021/09/22 18:20:36;;;;;;;16.55;5.20;;;;;;;;;;10565746;28;20043;-72
2021/09/22 18:25:39;;;;;;;15.48;6.65;;;;;;;;;;10571682;28;20036;-71
2021/09/22 18:30:43;;;;;;;18.20;6.73;;;;;;;;;;10570507;28;20068;-70
2021/09/22 18:35:49;;;;;;;12.63;5.40;;;;;;;;;;10570278;28;20031;-70
2021/09/22 18:40:52;;;;;;;10.90;5.03;;;;;;;;;;10560141;28;20036;-71
2021/09/22 18:45:56;;;;;;;12.30;5.70;;;;;;;;;;10549580;28;20035;-72
2021/09/22 18:50:59;;;;;;;14.18;5.63;;;;;;;;;;10559097;28;20032;-71
2021/09/22 18:56:02;;;;;;;15.13;5.57;;;;;;;;;;10567747;28;20047;-68
2021/09/22 19:01:10;;;;;;;15.23;5.85;;;;;;;;;;10552106;28;20043;-70
2021/09/22 19:06:13;;;;;;;16.33;6.05;;;;;;;;;;10565537;28;20074;-71
2021/09/22 19:11:16;;;;;;;18.67;6.80;;;;;;;;;;10564925;28;20043;-71
2021/09/22 19:16:20;;;;;;;14.60;5.20;;;;;;;;;;10568372;28;20047;-70
2021/09/22 19:21:23;;;;;;;15.15;5.80;;;;;;;;;;10571812;28;20483;-71
2021/09/22 19:26:26;;;;;;;14.90;6.53;;;;;;;;;;10574297;28;20043;-71
2021/09/22 19:31:31;;;;;;;15.48;6.40;;;;;;;;;;10564614;28;20876;-71
2021/09/22 19:36:34;;;;;;;19.10;5.82;;;;;;;;;;10433045;28;20119;-69
2021/09/22 19:41:38;;;;;;;15.57;5.78;;;;;;;;;;10423045;28;20425;-69
2021/09/22 19:46:43;;;;;;;13.95;6.13;;;;;;;;;;10437183;28;20519;-72
2021/09/22 19:51:46;;;;;;;14.70;6.15;;;;;;;;;;10440094;28;20045;-72
2021/09/22 19:56:50;;;;;;;13.82;5.57;;;;;;;;;;10442711;28;20116;-70
2021/09/22 20:01:55;;;;;;;15.45;5.82;;;;;;;;;;10442769;28;20065;-70
2021/09/22 20:06:58;;;;;;;15.38;6.35;;;;;;;;;;10445151;28;20041;-71
2021/09/22 20:12:02;;;;;;;14.85;5.80;;;;;;;;;;10430368;28;20052;-71
2021/09/22 20:17:06;;;;;;;16.10;6.50;;;;;;;;;;10435322;28;20122;-71
2021/09/22 20:22:09;;;;;;;17.38;6.63;;;;;;;;;;10441713;28;20126;-70
2021/09/22 20:27:12;;;;;;;15.55;6.82;;;;;;;;;;10442352;28;20111;-72
2021/09/22 20:32:16;;;;;;;18.63;7.23;;;;;;;;;;10440812;28;20045;-72
2021/09/22 20:37:20;;;;;;;18.17;6.70;;;;;;;;;;10441172;28;20523;-71
2021/09/22 20:42:26;;;;;;;18.30;7.43;;;;;;;;;;10444770;28;20055;-71
2021/09/22 20:47:31;;;;;;;19.63;6.90;;;;;;;;;;10438255;28;20041;-73
2021/09/22 20:52:34;;;;;;;17.17;7.63;;;;;;;;;;10436600;28;20067;-71
2021/09/22 20:57:37;;;;;;;14.60;6.07;;;;;;;;;;10443704;28;20041;-71
2021/09/22 21:02:41;;;;;;;17.80;7.37;;;;;;;;;;10440891;28;20140;-72
2021/09/22 21:07:44;;;;;;;16.80;7.07;;;;;;;;;;10439716;28;20041;-71
2021/09/22 21:12:47;;;;;;;20.53;8.20;;;;;;;;;;10452803;28;20055;-72
2021/09/22 21:17:51;;;;;;;19.75;7.15;;;;;;;;;;10440415;28;20041;-72
2021/09/22 21:22:55;;;;;;;17.30;7.32;;;;;;;;;;10441540;28;20041;-71
2021/09/22 21:27:58;;;;;;;20.45;6.95;;;;;;;;;;10438686;28;20367;-74
2021/09/22 21:33:02;;;;;;;19.85;7.20;;;;;;;;;;10434046;28;20106;-72
2021/09/22 21:38:05;;;;;;;15.15;6.78;;;;;;;;;;10432086;28;20464;-72
2021/09/22 21:43:08;;;;;;;19.20;7.57;;;;;;;;;;10437892;28;20505;-72
2021/09/22 21:48:13;;;;;;;20.13;6.97;;;;;;;;;;10433685;28;20102;-71
2021/09/22 21:53:15;;;;;;;28.92;11.32;;;;;;;;;;10435552;28;20045;-72
2021/09/22 21:58:18;;;;;;;21.13;7.78;;;;;;;;;;10437061;28;20060;-72
2021/09/22 22:03:23;;;;;;;16.02;6.47;;;;;;;;;;10438164;28;20414;-72
2021/09/22 22:08:40;;;;;;;18.05;6.85;;;;;;;;;;10435047;28;20420;-71
2021/09/22 22:13:43;;;;;;;17.30;6.78;;;;;;;;;;10441265;28;20048;-73
2021/09/22 22:18:47;;;;;;;17.73;6.95;;;;;;;;;;10440612;28;20047;-71
2021/09/22 22:23:50;;;;;;;15.10;6.22;;;;;;;;;;10438991;28;20416;-72
2021/09/22 22:28:53;;;;;;;16.13;6.43;;;;;;;;;;10438637;28;20390;-72
2021/09/22 22:33:57;;;;;;;15.32;6.22;;;;;;;;;;10440294;28;20037;-73
2021/09/22 22:39:00;;;;;;;16.33;6.95;;;;;;;;;;10437956;28;20045;-72
2021/09/22 22:44:04;;;;;;;16.02;6.15;;;;;;;;;;10446981;28;20045;-73
2021/09/22 22:49:08;;;;;;;18.33;6.60;;;;;;;;;;10450462;28;20045;-73
2021/09/22 22:54:11;;;;;;;17.73;6.38;;;;;;;;;;10452648;28;20299;-73
2021/09/22 22:59:14;;;;;;;17.45;6.30;;;;;;;;;;10455527;28;20037;-73
2021/09/22 23:04:18;;;;;;;16.35;6.13;;;;;;;;;;10457576;28;20063;-72
2021/09/22 23:09:21;;;;;;;14.68;6.10;;;;;;;;;;10452494;28;20045;-72
2021/09/22 23:14:24;;;;;;;15.30;6.20;;;;;;;;;;10457404;28;20045;-72
2021/09/22 23:19:33;;;;;;;2.80;1.85;;;;;;;;;;10450705;28;20041;-69
2021/09/22 23:24:36;;;;;;;16.38;5.88;;;;;;;;;;10452612;28;20033;-70
2021/09/22 23:29:39;;;;;;;14.68;6.43;;;;;;;;;;10450596;28;20037;-72
2021/09/22 23:34:43;;;;;;;15.27;5.50;;;;;;;;;;10446701;28;20058;-71
2021/09/22 23:39:46;;;;;;;14.18;5.82;;;;;;;;;;10443688;28;20518;-73
2021/09/22 23:44:49;;;;;;;17.20;6.13;;;;;;;;;;10442876;28;20068;-71
2021/09/22 23:49:54;;;;;;;15.10;5.90;;;;;;;;;;10434631;28;20140;-71
2021/09/22 23:54:57;;;;;;;13.25;5.78;;;;;;;;;;10445171;28;20107;-71
